createdAt,value
2022-12-28T00:00:01.358Z,22.87
2022-12-28T00:02:42.310Z,22.89
2022-12-28T00:05:20.996Z,22.87
2022-12-28T00:07:54.498Z,22.88
2022-12-28T00:11:07.638Z,22.82
2022-12-28T00:13:22.804Z,22.85
2022-12-28T00:15:55.016Z,22.85
2022-12-28T00:18:25.660Z,22.84
2022-12-28T00:20:58.436Z,22.86
2022-12-28T00:23:29.568Z,22.83
2022-12-28T00:26:17.533Z,22.84
2022-12-28T00:28:45.320Z,22.87
2022-12-28T00:31:21.241Z,22.85
2022-12-28T00:33:54.386Z,22.86
2022-12-28T00:36:22.141Z,22.82
2022-12-28T00:38:53.858Z,22.85
2022-12-28T00:41:27.011Z,22.83
2022-12-28T00:43:57.456Z,22.86
2022-12-28T00:46:31.477Z,22.80
2022-12-28T00:49:04.330Z,22.82
2022-12-28T00:51:36.653Z,22.82
2022-12-28T00:54:04.471Z,22.79
2022-12-28T00:56:34.660Z,22.86
2022-12-28T00:59:09.862Z,22.88
2022-12-28T01:01:43.607Z,22.80
2022-12-28T01:04:14.358Z,22.85
2022-12-28T01:06:50.922Z,22.82
2022-12-28T01:09:24.100Z,22.82
2022-12-28T01:11:59.361Z,22.84
2022-12-28T01:14:35.054Z,22.83
2022-12-28T01:17:07.372Z,22.82
2022-12-28T01:19:40.247Z,22.80
2022-12-28T01:22:10.416Z,22.80
2022-12-28T01:24:41.782Z,22.76
2022-12-28T01:27:15.334Z,22.82
2022-12-28T01:29:45.791Z,22.85
2022-12-28T01:32:25.376Z,22.86
2022-12-28T01:34:58.132Z,22.85
2022-12-28T01:37:26.127Z,22.78
2022-12-28T01:39:56.885Z,22.79
2022-12-28T01:42:25.633Z,22.77
2022-12-28T01:45:13.843Z,22.76
2022-12-28T01:47:44.283Z,22.76
2022-12-28T01:50:21.942Z,22.74
2022-12-28T01:52:55.108Z,22.85
2022-12-28T01:55:30.762Z,22.85
2022-12-28T01:58:10.198Z,22.81
2022-12-28T02:00:43.916Z,22.78
2022-12-28T02:03:20.379Z,22.80
2022-12-28T02:05:57.148Z,22.83
2022-12-28T02:08:41.835Z,22.88
2022-12-28T02:11:15.758Z,22.98
2022-12-28T02:13:54.419Z,23.11
2022-12-28T02:16:28.561Z,23.22
2022-12-28T02:18:59.386Z,23.33
2022-12-28T02:21:53.158Z,23.37
2022-12-28T02:25:13.715Z,23.42
2022-12-28T02:28:10.357Z,23.45
2022-12-28T02:30:49.883Z,23.60
2022-12-28T02:33:32.792Z,23.64
2022-12-28T02:36:17.959Z,23.63
2022-12-28T02:39:03.617Z,23.72
2022-12-28T02:41:34.739Z,23.80
2022-12-28T02:44:02.506Z,23.63
2022-12-28T02:46:57.173Z,23.71
2022-12-28T02:49:47.423Z,23.76
2022-12-28T02:52:32.638Z,23.57
2022-12-28T02:55:37.908Z,23.57
2022-12-28T02:58:16.915Z,23.64
2022-12-28T03:01:02.606Z,23.71
2022-12-28T03:03:45.227Z,23.85
2022-12-28T03:06:53.063Z,23.98
2022-12-28T03:09:43.192Z,24.01
2022-12-28T03:12:23.775Z,24.04
2022-12-28T03:15:04.020Z,24.03
2022-12-28T03:17:58.393Z,23.93
2022-12-28T03:20:51.299Z,24.10
2022-12-28T03:23:41.503Z,24.07
2022-12-28T03:26:32.135Z,24.10
2022-12-28T03:29:27.331Z,24.02
2022-12-28T03:31:59.965Z,23.97
2022-12-28T03:34:37.053Z,23.78
2022-12-28T03:37:18.918Z,23.59
2022-12-28T03:40:07.869Z,23.37
2022-12-28T03:43:02.986Z,23.29
2022-12-28T03:45:53.301Z,23.21
2022-12-28T03:48:30.771Z,23.14
2022-12-28T03:51:01.760Z,23.08
2022-12-28T03:53:43.471Z,23.12
2022-12-28T03:56:19.601Z,23.01
2022-12-28T03:58:54.857Z,22.95
2022-12-28T04:01:28.197Z,22.96
2022-12-28T04:03:58.852Z,22.96
2022-12-28T04:06:37.858Z,22.90
2022-12-28T04:09:10.622Z,22.87
2022-12-28T04:11:41.292Z,22.85
2022-12-28T04:14:17.605Z,22.82
2022-12-28T04:16:53.446Z,22.79
2022-12-28T04:19:24.377Z,22.79
2022-12-28T04:22:03.512Z,22.84
2022-12-28T04:24:38.431Z,22.79
2022-12-28T04:27:12.570Z,22.75
2022-12-28T04:30:03.804Z,22.69
2022-12-28T04:32:40.334Z,22.73
2022-12-28T04:35:11.791Z,22.71
2022-12-28T04:37:49.367Z,22.72
2022-12-28T04:40:25.702Z,22.68
2022-12-28T04:42:59.544Z,22.64
2022-12-28T04:45:29.427Z,22.64
2022-12-28T04:48:00.841Z,22.71
2022-12-28T04:50:33.749Z,22.67
2022-12-28T04:53:06.286Z,22.67
2022-12-28T04:55:38.733Z,22.58
2022-12-28T04:58:14.064Z,22.63
2022-12-28T05:00:44.852Z,22.69
2022-12-28T05:03:23.858Z,22.73
2022-12-28T05:05:51.441Z,22.76
2022-12-28T05:08:21.959Z,22.74
2022-12-28T05:11:01.482Z,22.71
2022-12-28T05:13:29.443Z,22.72
2022-12-28T05:16:04.210Z,22.65
2022-12-28T05:18:34.678Z,22.63
2022-12-28T05:21:11.178Z,22.66
2022-12-28T05:23:44.143Z,22.66
2022-12-28T05:26:17.064Z,22.68
2022-12-28T05:28:47.112Z,22.64
2022-12-28T05:31:23.734Z,22.64
2022-12-28T05:33:57.172Z,22.60
2022-12-28T05:36:30.287Z,22.62
2022-12-28T05:39:03.865Z,22.61
2022-12-28T05:41:32.709Z,22.62
2022-12-28T05:44:03.144Z,22.58
2022-12-28T05:46:35.000Z,22.59
2022-12-28T05:49:08.343Z,22.57
2022-12-28T05:51:44.477Z,22.59
2022-12-28T05:54:17.803Z,22.66
2022-12-28T05:56:59.626Z,22.61
2022-12-28T05:59:27.257Z,22.64
2022-12-28T06:01:54.985Z,22.58
2022-12-28T06:04:28.175Z,22.57
2022-12-28T06:07:04.255Z,22.57
2022-12-28T06:09:34.929Z,22.67
2022-12-28T06:12:08.557Z,22.62
2022-12-28T06:14:36.190Z,22.63
2022-12-28T06:17:09.751Z,22.66
2022-12-28T06:19:40.140Z,22.64
2022-12-28T06:22:11.898Z,22.61
2022-12-28T06:24:45.210Z,22.57
2022-12-28T06:27:14.807Z,22.60
2022-12-28T06:29:50.771Z,22.61
2022-12-28T06:32:20.305Z,22.64
2022-12-28T06:34:47.953Z,22.63
2022-12-28T06:37:24.549Z,22.59
2022-12-28T06:39:59.239Z,22.57
2022-12-28T06:42:31.697Z,22.53
2022-12-28T06:45:05.527Z,22.49
2022-12-28T06:47:37.161Z,22.46
2022-12-28T06:50:12.357Z,22.55
2022-12-28T06:52:43.042Z,22.59
2022-12-28T06:55:16.484Z,22.63
2022-12-28T06:57:47.084Z,22.63
2022-12-28T07:00:22.923Z,22.62
2022-12-28T07:02:57.928Z,22.64
2022-12-28T07:05:26.027Z,22.66
2022-12-28T07:07:59.250Z,22.60
2022-12-28T07:10:26.925Z,22.63
2022-12-28T07:12:54.979Z,22.64
2022-12-28T07:15:22.929Z,22.71
2022-12-28T07:17:53.445Z,22.79
2022-12-28T07:20:22.663Z,22.98
2022-12-28T07:22:55.946Z,23.12
2022-12-28T07:25:23.442Z,23.16
2022-12-28T07:27:57.906Z,23.20
2022-12-28T07:30:28.178Z,23.34
2022-12-28T07:32:58.594Z,23.58
2022-12-28T07:35:34.403Z,23.72
2022-12-28T07:38:04.634Z,23.75
2022-12-28T07:40:32.242Z,23.84
2022-12-28T07:43:05.843Z,23.80
2022-12-28T07:45:33.400Z,23.70
2022-12-28T07:48:01.094Z,23.77
2022-12-28T07:50:37.752Z,23.73
2022-12-28T07:53:08.426Z,23.83
2022-12-28T07:55:41.235Z,23.92
2022-12-28T07:58:14.080Z,23.85
2022-12-28T08:00:47.848Z,24.02
2022-12-28T08:03:22.302Z,24.22
2022-12-28T08:05:53.506Z,24.49
2022-12-28T08:08:23.369Z,24.73
2022-12-28T08:10:56.836Z,25.10
2022-12-28T08:13:34.187Z,25.15
2022-12-28T08:16:09.004Z,25.17
2022-12-28T08:18:40.650Z,25.03
2022-12-28T08:21:22.815Z,25.20
2022-12-28T08:23:53.382Z,25.02
2022-12-28T08:26:29.625Z,24.94
2022-12-28T08:29:04.680Z,25.29
2022-12-28T08:31:41.159Z,25.08
2022-12-28T08:34:26.829Z,25.01
2022-12-28T08:37:00.230Z,25.29
2022-12-28T08:39:34.478Z,25.55
2022-12-28T08:42:05.357Z,25.50
2022-12-28T08:44:36.057Z,25.31
2022-12-28T08:47:05.538Z,25.06
2022-12-28T08:49:39.101Z,25.21
2022-12-28T08:52:09.209Z,25.76
2022-12-28T08:54:43.093Z,26.72
2022-12-28T08:57:19.236Z,27.56
2022-12-28T08:59:56.116Z,26.35
2022-12-28T09:02:26.505Z,26.47
2022-12-28T09:05:00.228Z,25.95
2022-12-28T09:07:31.176Z,25.36
2022-12-28T09:10:11.279Z,25.34
2022-12-28T09:12:49.284Z,25.01
2022-12-28T09:15:17.310Z,25.34
2022-12-28T09:17:51.157Z,25.36
2022-12-28T09:20:20.181Z,25.26
2022-12-28T09:22:54.200Z,24.96
2022-12-28T09:25:24.860Z,24.72
2022-12-28T09:27:59.262Z,24.68
2022-12-28T09:30:41.797Z,24.68
2022-12-28T09:33:28.394Z,25.23
2022-12-28T09:36:04.630Z,26.60
2022-12-28T09:38:44.734Z,28.65
2022-12-28T09:41:24.631Z,29.96
2022-12-28T09:44:13.040Z,30.81
2022-12-28T09:46:50.033Z,30.96
2022-12-28T09:49:23.771Z,31.11
2022-12-28T09:52:15.483Z,31.65
2022-12-28T09:54:48.679Z,32.03
2022-12-28T09:57:23.693Z,32.08
2022-12-28T09:59:57.967Z,32.13
2022-12-28T10:02:55.795Z,32.24
2022-12-28T10:05:26.787Z,31.63
2022-12-28T10:08:01.289Z,31.51
2022-12-28T10:10:30.567Z,31.39
2022-12-28T10:13:21.713Z,31.56
2022-12-28T10:16:01.486Z,32.08
2022-12-28T10:18:39.502Z,31.59
2022-12-28T10:21:11.149Z,32.53
2022-12-28T10:24:12.476Z,31.28
2022-12-28T10:26:45.745Z,31.79
2022-12-28T10:29:28.326Z,32.30
2022-12-28T10:32:01.953Z,31.60
2022-12-28T10:34:36.594Z,31.43
2022-12-28T10:37:18.796Z,31.74
2022-12-28T10:40:09.248Z,31.64
2022-12-28T10:42:50.752Z,31.19
2022-12-28T10:45:25.596Z,32.40
2022-12-28T10:47:57.152Z,31.92
2022-12-28T10:50:45.104Z,31.74
2022-12-28T10:53:51.595Z,31.83
2022-12-28T10:56:48.378Z,30.57
2022-12-28T10:59:33.952Z,32.13
2022-12-28T11:02:33.635Z,31.81
2022-12-28T11:05:05.531Z,32.52
2022-12-28T11:07:41.188Z,32.40
2022-12-28T11:10:23.667Z,31.95
2022-12-28T11:12:59.469Z,32.06
2022-12-28T11:15:33.797Z,32.29
2022-12-28T11:18:20.558Z,32.47
2022-12-28T11:20:53.685Z,31.76
2022-12-28T11:23:31.608Z,32.20
2022-12-28T11:25:59.733Z,31.69
2022-12-28T11:28:27.731Z,32.26
2022-12-28T11:31:08.054Z,31.78
2022-12-28T11:33:44.384Z,32.06
2022-12-28T11:36:21.377Z,31.17
2022-12-28T11:38:53.220Z,30.64
2022-12-28T11:41:33.659Z,31.10
2022-12-28T11:44:06.201Z,30.17
2022-12-28T11:46:42.700Z,30.35
2022-12-28T11:49:22.220Z,30.32
2022-12-28T11:52:34.450Z,30.41
2022-12-28T11:55:21.988Z,30.21
2022-12-28T11:57:50.756Z,29.97
2022-12-28T12:00:23.078Z,29.95
2022-12-28T12:02:51.302Z,31.26
2022-12-28T12:05:38.461Z,30.64
2022-12-28T12:08:11.935Z,30.72
2022-12-28T12:10:41.972Z,30.25
2022-12-28T12:13:30.867Z,30.36
2022-12-28T12:16:05.525Z,30.00
2022-12-28T12:18:46.147Z,30.63
2022-12-28T12:21:41.922Z,30.27
2022-12-28T12:24:35.514Z,30.49
2022-12-28T12:27:17.951Z,30.20
2022-12-28T12:29:58.226Z,30.72
2022-12-28T12:32:39.237Z,30.69
2022-12-28T12:35:14.065Z,30.31
2022-12-28T12:38:00.601Z,30.25
2022-12-28T12:40:44.001Z,30.62
2022-12-28T12:43:46.851Z,30.37
2022-12-28T12:46:39.748Z,30.36
2022-12-28T12:49:34.857Z,30.64
2022-12-28T12:52:24.270Z,30.58
2022-12-28T12:55:23.810Z,30.40
2022-12-28T12:58:08.227Z,30.80
2022-12-28T13:01:00.406Z,30.06
2022-12-28T13:03:36.777Z,31.21
2022-12-28T13:06:17.471Z,30.96
2022-12-28T13:08:51.192Z,31.21
2022-12-28T13:11:25.752Z,30.80
2022-12-28T13:14:07.116Z,30.87
2022-12-28T13:16:37.804Z,31.18
2022-12-28T13:19:20.582Z,30.78
2022-12-28T13:21:58.421Z,31.52
2022-12-28T13:24:46.112Z,30.95
2022-12-28T13:27:23.095Z,30.91
2022-12-28T13:29:54.945Z,30.85
2022-12-28T13:32:37.808Z,30.52
2022-12-28T13:35:27.124Z,30.15
2022-12-28T13:38:07.144Z,30.50
2022-12-28T13:40:43.426Z,30.05
2022-12-28T13:43:26.655Z,30.75
2022-12-28T13:46:13.739Z,31.20
2022-12-28T13:48:52.663Z,31.75
2022-12-28T13:51:26.568Z,32.03
2022-12-28T13:54:07.234Z,32.48
2022-12-28T13:56:44.582Z,33.13
2022-12-28T13:59:25.626Z,31.92
2022-12-28T14:01:54.578Z,31.44
2022-12-28T14:07:34.927Z,31.61
2022-12-28T14:10:10.460Z,31.03
2022-12-28T14:12:44.497Z,30.81
2022-12-28T14:15:21.980Z,31.83
2022-12-28T14:18:01.379Z,31.84
2022-12-28T14:20:48.428Z,32.15
2022-12-28T14:23:24.750Z,31.35
2022-12-28T14:26:09.243Z,31.90
2022-12-28T14:28:45.469Z,31.78
2022-12-28T14:31:29.493Z,31.84
2022-12-28T14:34:09.145Z,32.12
2022-12-28T14:36:50.661Z,31.08
2022-12-28T14:39:32.763Z,31.70
2022-12-28T14:42:10.304Z,32.27
2022-12-28T14:44:56.733Z,32.22
2022-12-28T14:47:46.804Z,32.22
2022-12-28T14:50:22.023Z,31.33
2022-12-28T14:53:14.530Z,32.29
2022-12-28T14:56:13.561Z,31.10
2022-12-28T14:58:56.177Z,31.76
2022-12-28T15:01:40.838Z,33.08
2022-12-28T15:04:28.999Z,32.22
2022-12-28T15:07:00.052Z,30.56
2022-12-28T15:09:30.810Z,32.51
2022-12-28T15:12:20.511Z,31.60
2022-12-28T15:14:57.730Z,30.49
2022-12-28T15:17:37.407Z,29.65
2022-12-28T15:20:12.059Z,30.20
2022-12-28T15:22:46.665Z,30.74
2022-12-28T15:25:22.552Z,29.81
2022-12-28T15:27:56.820Z,28.71
2022-12-28T15:30:29.281Z,28.54
2022-12-28T15:33:01.256Z,28.60
2022-12-28T15:35:32.862Z,28.61
2022-12-28T15:38:04.066Z,28.52
2022-12-28T15:40:37.472Z,28.44
2022-12-28T15:43:05.477Z,27.94
2022-12-28T15:45:37.317Z,27.68
2022-12-28T15:48:08.560Z,27.43
2022-12-28T15:50:44.260Z,27.49
2022-12-28T15:53:19.926Z,27.35
2022-12-28T15:56:01.651Z,27.52
2022-12-28T15:58:36.637Z,27.66
2022-12-28T16:01:15.552Z,27.63
2022-12-28T16:03:51.623Z,26.90
2022-12-28T16:06:29.317Z,27.14
2022-12-28T16:09:04.281Z,26.82
2022-12-28T16:11:45.699Z,26.47
2022-12-28T16:14:21.932Z,26.37
2022-12-28T16:16:55.760Z,25.97
2022-12-28T16:19:28.967Z,25.91
2022-12-28T16:22:01.057Z,25.71
2022-12-28T16:24:34.196Z,25.80
2022-12-28T16:27:12.915Z,25.72
2022-12-28T16:29:42.978Z,25.64
2022-12-28T16:32:19.038Z,25.41
2022-12-28T16:34:59.531Z,25.58
2022-12-28T16:37:29.667Z,25.46
2022-12-28T16:40:08.686Z,25.50
2022-12-28T16:42:46.078Z,25.73
2022-12-28T16:45:23.323Z,25.99
2022-12-28T16:47:58.222Z,26.17
2022-12-28T16:50:29.157Z,25.92
2022-12-28T16:53:01.139Z,25.75
2022-12-28T16:55:29.697Z,25.47
2022-12-28T16:58:03.290Z,25.29
2022-12-28T17:00:36.908Z,25.11
2022-12-28T17:03:05.590Z,24.90
2022-12-28T17:05:37.820Z,24.77
2022-12-28T17:08:14.313Z,24.69
2022-12-28T17:10:46.323Z,24.56
2022-12-28T17:13:19.734Z,24.42
2022-12-28T17:15:53.528Z,24.36
2022-12-28T17:18:30.158Z,24.30
2022-12-28T17:21:07.362Z,24.24
2022-12-28T17:23:38.983Z,24.21
2022-12-28T17:26:12.204Z,24.17
2022-12-28T17:28:45.087Z,24.16
2022-12-28T17:31:19.132Z,24.14
2022-12-28T17:33:59.510Z,24.06
2022-12-28T17:36:30.495Z,24.07
2022-12-28T17:39:04.125Z,24.00
2022-12-28T17:41:31.883Z,24.00
2022-12-28T17:44:05.270Z,23.98
2022-12-28T17:46:41.492Z,23.95
2022-12-28T17:49:13.816Z,23.93
2022-12-28T17:51:42.249Z,23.91
2022-12-28T17:54:16.130Z,23.92
2022-12-28T17:56:46.467Z,23.85
2022-12-28T17:59:16.869Z,23.88
2022-12-28T18:01:48.039Z,23.83
2022-12-28T18:04:17.568Z,23.80
2022-12-28T18:06:46.050Z,23.74
2022-12-28T18:09:14.173Z,23.78
2022-12-28T18:11:44.869Z,23.75
2022-12-28T18:14:17.553Z,23.72
2022-12-28T18:16:53.290Z,23.73
2022-12-28T18:19:23.768Z,23.74
2022-12-28T18:22:00.360Z,23.72
2022-12-28T18:24:34.469Z,23.72
2022-12-28T18:27:07.345Z,23.67
2022-12-28T18:29:36.309Z,23.68
2022-12-28T18:32:07.096Z,23.69
2022-12-28T18:34:34.760Z,23.64
2022-12-28T18:37:05.734Z,23.64
2022-12-28T18:39:36.964Z,23.65
2022-12-28T18:42:07.460Z,23.64
2022-12-28T18:44:37.775Z,23.61
2022-12-28T18:47:05.783Z,23.63
2022-12-28T18:49:37.924Z,23.59
2022-12-28T18:52:10.349Z,23.56
2022-12-28T18:54:38.086Z,23.59
2022-12-28T18:57:08.414Z,23.53
2022-12-28T18:59:39.820Z,23.51
2022-12-28T19:02:13.204Z,23.45
2022-12-28T19:04:45.313Z,23.49
2022-12-28T19:07:16.345Z,23.51
2022-12-28T19:10:11.558Z,23.48
2022-12-28T19:12:41.629Z,23.49
2022-12-28T19:15:15.698Z,23.47
2022-12-28T19:17:45.390Z,23.44
2022-12-28T19:20:15.679Z,23.44
2022-12-28T19:22:48.726Z,23.43
2022-12-28T19:25:19.398Z,23.47
2022-12-28T19:27:52.880Z,23.44
2022-12-28T19:30:23.888Z,23.47
2022-12-28T19:32:55.095Z,23.44
2022-12-28T19:35:22.988Z,23.43
2022-12-28T19:37:50.526Z,23.44
2022-12-28T19:40:20.079Z,23.45
2022-12-28T19:42:56.380Z,23.42
2022-12-28T19:45:29.939Z,23.40
2022-12-28T19:47:58.977Z,23.42
2022-12-28T19:50:30.590Z,23.39
2022-12-28T19:52:59.200Z,23.42
2022-12-28T19:55:34.815Z,23.42
2022-12-28T19:58:02.655Z,23.39
2022-12-28T20:00:36.556Z,23.40
2022-12-28T20:03:06.136Z,23.35
2022-12-28T20:05:39.317Z,23.33
2022-12-28T20:08:10.256Z,23.32
2022-12-28T20:10:43.329Z,23.37
2022-12-28T20:13:11.129Z,23.37
2022-12-28T20:15:42.088Z,23.35
2022-12-28T20:18:12.575Z,23.35
2022-12-28T20:21:17.231Z,23.36
2022-12-28T20:23:46.857Z,23.29
2022-12-28T20:26:17.414Z,23.30
2022-12-28T20:28:48.045Z,23.31
2022-12-28T20:31:25.100Z,23.28
2022-12-28T20:33:55.377Z,23.27
2022-12-28T20:36:28.948Z,23.28
2022-12-28T20:38:59.125Z,23.23
2022-12-28T20:41:48.372Z,23.26
2022-12-28T20:44:28.243Z,23.26
2022-12-28T20:46:56.821Z,23.24
2022-12-28T20:49:31.574Z,23.24
2022-12-28T20:52:05.628Z,23.22
2022-12-28T20:54:33.148Z,23.22
2022-12-28T20:57:05.077Z,23.22
2022-12-28T20:59:35.140Z,23.21
2022-12-28T21:02:09.715Z,23.21
2022-12-28T21:04:37.403Z,23.17
2022-12-28T21:07:07.875Z,23.18
2022-12-28T21:09:43.309Z,23.19
2022-12-28T21:12:20.104Z,23.21
2022-12-28T21:14:53.391Z,23.19
2022-12-28T21:17:24.836Z,23.18
2022-12-28T21:19:55.407Z,23.11
2022-12-28T21:22:24.414Z,23.14
2022-12-28T21:24:57.859Z,23.13
2022-12-28T21:27:30.062Z,23.12
2022-12-28T21:29:57.847Z,23.10
2022-12-28T21:32:25.432Z,23.13
2022-12-28T21:34:53.087Z,23.10
2022-12-28T21:37:35.493Z,23.10
2022-12-28T21:40:05.686Z,23.04
2022-12-28T21:42:39.249Z,23.06
2022-12-28T21:45:13.014Z,23.12
2022-12-28T21:47:43.756Z,23.09
2022-12-28T21:50:17.508Z,23.04
2022-12-28T21:52:47.660Z,23.03
2022-12-28T21:55:34.143Z,23.05
2022-12-28T21:58:07.286Z,23.08
2022-12-28T22:00:53.314Z,22.99
2022-12-28T22:03:43.126Z,23.02
2022-12-28T22:06:13.123Z,23.12
2022-12-28T22:09:04.651Z,23.24
2022-12-28T22:11:50.702Z,23.30
2022-12-28T22:14:18.806Z,23.43
2022-12-28T22:16:50.903Z,23.51
2022-12-28T22:19:21.178Z,23.57
2022-12-28T22:21:55.248Z,23.59
2022-12-28T22:24:25.199Z,23.68
2022-12-28T22:27:03.863Z,23.74
2022-12-28T22:29:34.597Z,23.82
2022-12-28T22:32:07.944Z,23.82
2022-12-28T22:34:40.526Z,23.82
2022-12-28T22:37:14.009Z,23.79
2022-12-28T22:39:45.171Z,23.86
2022-12-28T22:42:18.415Z,23.94
2022-12-28T22:44:48.971Z,23.99
2022-12-28T22:47:16.533Z,24.01
2022-12-28T22:49:48.105Z,23.96
2022-12-28T22:52:15.862Z,23.98
2022-12-28T22:54:54.814Z,23.98
2022-12-28T22:57:42.341Z,23.96
2022-12-28T23:00:14.759Z,23.88
2022-12-28T23:02:45.611Z,23.77
2022-12-28T23:05:21.538Z,23.62
2022-12-28T23:07:51.180Z,23.47
2022-12-28T23:10:18.974Z,23.40
2022-12-28T23:12:46.883Z,23.29
2022-12-28T23:15:24.960Z,23.21
2022-12-28T23:18:15.304Z,23.20
2022-12-28T23:21:07.317Z,23.12
2022-12-28T23:23:56.019Z,23.08
2022-12-28T23:26:42.981Z,23.07
2022-12-28T23:29:16.516Z,23.03
2022-12-28T23:31:49.599Z,22.98
2022-12-28T23:34:17.391Z,22.93
2022-12-28T23:36:45.046Z,22.91
2022-12-28T23:39:12.710Z,22.92
2022-12-28T23:41:51.158Z,22.92
2022-12-28T23:44:24.537Z,22.92
2022-12-28T23:46:58.998Z,22.92
2022-12-28T23:49:29.937Z,22.91
2022-12-28T23:52:03.643Z,22.85
2022-12-28T23:54:31.206Z,22.88
2022-12-28T23:56:58.818Z,22.89
2022-12-28T23:59:29.227Z,22.91
